createdAt,value
2022-10-26T00:01:11.580Z,100309.47
2022-10-26T00:03:39.572Z,100310.34
2022-10-26T00:06:12.829Z,100318.16
2022-10-26T00:08:39.886Z,100314.81
2022-10-26T00:11:07.694Z,100320.72
2022-10-26T00:13:35.349Z,100319.66
2022-10-26T00:16:07.408Z,100321.25
2022-10-26T00:18:34.024Z,100328.06
2022-10-26T00:21:09.402Z,100336.59
2022-10-26T00:23:37.300Z,100335.50
2022-10-26T00:26:04.481Z,100334.59
2022-10-26T00:28:31.961Z,100346.94
2022-10-26T00:31:08.538Z,100349.75
2022-10-26T00:33:35.331Z,100342.78
2022-10-26T00:36:01.979Z,100348.94
2022-10-26T00:38:28.695Z,100344.44
2022-10-26T00:40:55.324Z,100347.06
2022-10-26T00:43:21.841Z,100345.53
2022-10-26T00:45:52.506Z,100342.88
2022-10-26T00:48:42.060Z,100345.56
2022-10-26T00:51:24.318Z,100337.72
2022-10-26T00:53:52.261Z,100344.63
2022-10-26T00:56:19.486Z,100346.25
2022-10-26T00:58:46.933Z,100338.31
2022-10-26T01:01:13.900Z,100337.38
2022-10-26T01:03:40.761Z,100340.09
2022-10-26T01:06:09.648Z,100333.88
2022-10-26T01:08:36.681Z,100330.16
2022-10-26T01:11:05.004Z,100330.41
2022-10-26T01:13:34.400Z,100329.63
2022-10-26T01:16:32.226Z,100326.84
2022-10-26T01:19:23.157Z,100333.69
2022-10-26T01:22:01.982Z,100328.31
2022-10-26T01:24:28.522Z,100332.56
2022-10-26T01:27:02.327Z,100336.00
2022-10-26T01:29:50.446Z,100335.16
2022-10-26T01:32:27.166Z,100335.09
2022-10-26T01:35:26.132Z,100335.03
2022-10-26T01:38:10.241Z,100321.91
2022-10-26T01:40:42.990Z,100319.16
2022-10-26T01:43:13.816Z,100326.06
2022-10-26T01:45:44.738Z,100323.44
2022-10-26T01:48:15.295Z,100326.03
2022-10-26T01:50:45.144Z,100318.84
2022-10-26T01:53:14.065Z,100319.56
2022-10-26T01:55:44.877Z,100314.19
2022-10-26T01:58:40.038Z,100323.66
2022-10-26T02:01:39.232Z,100325.22
2022-10-26T02:04:11.710Z,100326.66
2022-10-26T02:06:53.144Z,100322.81
2022-10-26T02:09:31.609Z,100312.28
2022-10-26T02:11:58.984Z,100310.56
2022-10-26T02:14:31.579Z,100313.22
2022-10-26T02:17:07.064Z,100310.56
2022-10-26T02:19:47.886Z,100313.13
2022-10-26T02:22:22.217Z,100316.66
2022-10-26T02:24:52.559Z,100312.31
2022-10-26T02:27:26.311Z,100315.94
2022-10-26T02:29:55.446Z,100309.97
2022-10-26T02:32:25.125Z,100307.16
2022-10-26T02:34:53.922Z,100313.97
2022-10-26T02:37:23.075Z,100316.44
2022-10-26T02:39:53.018Z,100317.19
2022-10-26T02:42:20.069Z,100307.41
2022-10-26T02:44:54.897Z,100319.44
2022-10-26T02:47:22.576Z,100318.44
2022-10-26T02:49:49.395Z,100316.59
2022-10-26T02:52:28.461Z,100326.22
2022-10-26T02:55:09.380Z,100323.69
2022-10-26T02:57:41.722Z,100325.53
2022-10-26T03:00:13.059Z,100325.53
2022-10-26T03:02:44.715Z,100331.50
2022-10-26T03:05:19.635Z,100329.69
2022-10-26T03:07:46.286Z,100325.34
2022-10-26T03:10:12.853Z,100333.25
2022-10-26T03:12:39.477Z,100322.72
2022-10-26T03:15:06.616Z,100338.44
2022-10-26T03:17:33.225Z,100335.81
2022-10-26T03:19:59.775Z,100336.59
2022-10-26T03:22:26.398Z,100338.22
2022-10-26T03:24:53.024Z,100333.69
2022-10-26T03:27:19.632Z,100347.50
2022-10-26T03:29:46.235Z,100348.09
2022-10-26T03:32:12.803Z,100349.81
2022-10-26T03:34:39.489Z,100348.91
2022-10-26T03:37:06.021Z,100361.97
2022-10-26T03:39:32.634Z,100351.56
2022-10-26T03:41:59.631Z,100348.44
2022-10-26T03:44:26.274Z,100344.97
2022-10-26T03:46:52.883Z,100339.53
2022-10-26T03:49:19.557Z,100341.31
2022-10-26T03:51:46.141Z,100342.09
2022-10-26T03:54:12.740Z,100348.28
2022-10-26T03:56:39.372Z,100349.16
2022-10-26T03:59:05.956Z,100356.19
2022-10-26T04:01:32.676Z,100349.97
2022-10-26T04:03:59.416Z,100347.16
2022-10-26T04:06:26.683Z,100353.91
2022-10-26T04:08:58.260Z,100346.19
2022-10-26T04:11:24.879Z,100343.56
2022-10-26T04:13:51.514Z,100345.22
2022-10-26T04:16:18.155Z,100347.84
2022-10-26T04:18:44.863Z,100339.25
2022-10-26T04:21:11.428Z,100343.03
2022-10-26T04:23:37.991Z,100346.44
2022-10-26T04:26:05.947Z,100349.84
2022-10-26T04:28:32.529Z,100359.31
2022-10-26T04:30:59.109Z,100362.09
2022-10-26T04:33:25.808Z,100356.78
2022-10-26T04:35:52.392Z,100344.72
2022-10-26T04:38:18.965Z,100351.72
2022-10-26T04:40:45.555Z,100349.16
2022-10-26T04:43:12.174Z,100347.56
2022-10-26T04:45:38.726Z,100349.56
2022-10-26T04:48:11.506Z,100353.69
2022-10-26T04:50:38.684Z,100350.03
2022-10-26T04:53:06.900Z,100356.88
2022-10-26T04:55:34.459Z,100354.41
2022-10-26T04:58:02.011Z,100349.06
2022-10-26T05:00:30.396Z,100347.25
2022-10-26T05:03:04.705Z,100351.53
2022-10-26T05:05:32.977Z,100353.97
2022-10-26T05:08:00.031Z,100361.72
2022-10-26T05:10:27.092Z,100356.28
2022-10-26T05:12:55.557Z,100361.38
2022-10-26T05:15:23.026Z,100364.75
2022-10-26T05:18:00.666Z,100367.19
2022-10-26T05:20:31.544Z,100373.28
2022-10-26T05:23:03.935Z,100365.50
2022-10-26T05:25:32.723Z,100368.09
2022-10-26T05:28:05.013Z,100367.16
2022-10-26T05:30:32.345Z,100375.22
2022-10-26T05:33:02.361Z,100375.25
2022-10-26T05:35:31.009Z,100376.97
2022-10-26T05:37:57.680Z,100386.50
2022-10-26T05:40:24.837Z,100386.63
2022-10-26T05:42:52.063Z,100394.59
2022-10-26T05:45:18.863Z,100390.25
2022-10-26T05:47:46.929Z,100391.00
2022-10-26T05:50:14.467Z,100391.72
2022-10-26T05:52:46.011Z,100386.31
2022-10-26T05:55:15.534Z,100389.69
2022-10-26T05:57:42.561Z,100386.94
2022-10-26T06:00:16.004Z,100390.34
2022-10-26T06:03:17.901Z,100395.63
2022-10-26T06:05:57.788Z,100394.06
2022-10-26T06:08:27.151Z,100390.06
2022-10-26T06:10:55.173Z,100395.47
2022-10-26T06:13:22.370Z,100404.41
2022-10-26T06:16:07.506Z,100401.13
2022-10-26T06:18:42.522Z,100409.19
2022-10-26T06:21:47.228Z,100406.75
2022-10-26T06:24:28.585Z,100411.53
2022-10-26T06:27:20.525Z,100416.19
2022-10-26T06:30:01.922Z,100420.97
2022-10-26T06:32:28.848Z,100419.53
2022-10-26T06:35:17.415Z,100421.66
2022-10-26T06:37:46.465Z,100415.72
2022-10-26T06:40:16.315Z,100430.06
2022-10-26T06:42:43.564Z,100422.38
2022-10-26T06:45:17.376Z,100423.63
2022-10-26T06:47:57.037Z,100421.00
2022-10-26T06:50:38.271Z,100424.16
2022-10-26T06:53:17.817Z,100424.81
2022-10-26T06:55:46.809Z,100436.91
2022-10-26T06:58:17.777Z,100443.19
2022-10-26T07:00:46.783Z,100437.31
2022-10-26T07:03:13.354Z,100438.44
2022-10-26T07:05:40.230Z,100443.56
2022-10-26T07:08:06.920Z,100444.41
2022-10-26T07:10:35.344Z,100445.81
2022-10-26T07:13:01.910Z,100447.53
2022-10-26T07:15:28.500Z,100448.06
2022-10-26T07:17:55.071Z,100448.00
2022-10-26T07:20:21.784Z,100450.06
2022-10-26T07:22:56.403Z,100442.06
2022-10-26T07:25:24.392Z,100451.25
2022-10-26T07:27:51.543Z,100451.13
2022-10-26T07:30:18.515Z,100448.56
2022-10-26T07:32:45.093Z,100453.16
2022-10-26T07:35:11.788Z,100456.84
2022-10-26T07:37:38.426Z,100455.53
2022-10-26T07:40:06.957Z,100454.22
2022-10-26T07:42:34.404Z,100457.69
2022-10-26T07:45:00.965Z,100454.84
2022-10-26T07:47:27.537Z,100459.88
2022-10-26T07:49:54.141Z,100472.56
2022-10-26T07:52:20.788Z,100457.50
2022-10-26T07:54:47.440Z,100465.59
2022-10-26T07:57:16.814Z,100465.06
2022-10-26T07:59:43.629Z,100458.66
2022-10-26T08:02:10.772Z,100468.72
2022-10-26T08:04:37.533Z,100475.03
2022-10-26T08:07:04.156Z,100467.88
2022-10-26T08:09:30.747Z,100475.16
2022-10-26T08:11:57.329Z,100474.72
2022-10-26T08:14:23.957Z,100470.34
2022-10-26T08:16:52.773Z,100472.56
2022-10-26T08:19:21.323Z,100472.31
2022-10-26T08:21:47.917Z,100472.13
2022-10-26T08:24:14.619Z,100468.78
2022-10-26T08:26:42.061Z,100461.38
2022-10-26T08:29:08.998Z,100469.69
2022-10-26T08:31:35.597Z,100466.66
2022-10-26T08:34:04.131Z,100462.88
2022-10-26T08:36:30.865Z,100469.13
2022-10-26T08:38:57.465Z,100466.56
2022-10-26T08:41:45.842Z,100467.81
2022-10-26T08:44:31.935Z,100473.41
2022-10-26T08:47:05.515Z,100464.63
2022-10-26T08:50:02.389Z,100465.66
2022-10-26T08:52:38.669Z,100470.69
2022-10-26T08:55:14.699Z,100464.91
2022-10-26T08:57:42.548Z,100488.63
2022-10-26T09:00:16.439Z,100481.38
2022-10-26T09:02:43.040Z,100478.88
2022-10-26T09:05:16.744Z,100471.88
2022-10-26T09:07:52.867Z,100470.34
2022-10-26T09:10:44.540Z,100476.78
2022-10-26T09:13:13.753Z,100475.25
2022-10-26T09:16:00.659Z,100476.84
2022-10-26T09:18:33.150Z,100487.13
2022-10-26T09:21:17.714Z,100475.34
2022-10-26T09:24:06.094Z,100485.09
2022-10-26T09:27:02.065Z,100483.91
2022-10-26T09:29:42.521Z,100486.13
2022-10-26T09:32:20.206Z,100479.47
2022-10-26T09:34:52.524Z,100492.75
2022-10-26T09:37:24.420Z,100487.13
2022-10-26T09:40:16.417Z,100482.78
2022-10-26T09:42:58.363Z,100482.31
2022-10-26T09:45:32.106Z,100494.34
2022-10-26T09:48:09.875Z,100481.13
2022-10-26T09:50:39.284Z,100486.41
2022-10-26T09:53:05.863Z,100497.53
2022-10-26T09:55:35.726Z,100491.22
2022-10-26T09:58:06.505Z,100495.50
2022-10-26T10:03:02.265Z,100493.00
2022-10-26T10:05:50.264Z,100503.53
2022-10-26T10:08:21.339Z,100501.78
2022-10-26T10:11:23.469Z,100497.31
2022-10-26T10:13:50.166Z,100495.88
2022-10-26T10:16:23.859Z,100494.16
2022-10-26T10:18:57.270Z,100499.03
2022-10-26T10:21:39.044Z,100485.00
2022-10-26T10:24:40.866Z,100482.03
2022-10-26T10:27:13.703Z,100485.63
2022-10-26T10:29:44.166Z,100487.38
2022-10-26T10:32:30.527Z,100487.53
2022-10-26T10:34:58.846Z,100489.09
2022-10-26T10:37:38.804Z,100494.19
2022-10-26T10:40:08.104Z,100487.47
2022-10-26T10:42:39.191Z,100492.97
2022-10-26T10:45:08.124Z,100493.72
2022-10-26T10:47:37.439Z,100487.00
2022-10-26T10:50:12.724Z,100487.47
2022-10-26T10:52:39.402Z,100488.50
2022-10-26T10:55:15.053Z,100487.44
2022-10-26T10:57:42.861Z,100484.78
2022-10-26T11:00:10.579Z,100489.06
2022-10-26T11:03:06.036Z,100491.09
2022-10-26T11:06:01.980Z,100489.34
2022-10-26T11:09:12.325Z,100497.38
2022-10-26T11:11:48.274Z,100491.03
2022-10-26T11:14:23.115Z,100501.63
2022-10-26T11:17:17.905Z,100495.66
2022-10-26T11:19:50.589Z,100493.47
2022-10-26T11:22:22.573Z,100479.09
2022-10-26T11:24:58.159Z,100484.47
2022-10-26T11:27:30.785Z,100484.16
2022-10-26T11:30:07.774Z,100474.56
2022-10-26T11:33:12.021Z,100468.09
2022-10-26T11:35:44.694Z,100481.09
2022-10-26T11:38:46.481Z,100475.81
2022-10-26T11:41:42.672Z,100481.19
2022-10-26T11:44:29.541Z,100467.63
2022-10-26T11:47:03.933Z,100473.78
2022-10-26T11:49:45.184Z,100472.63
2022-10-26T11:52:20.824Z,100460.56
2022-10-26T11:54:54.387Z,100463.31
2022-10-26T11:57:24.061Z,100467.22
2022-10-26T11:59:58.577Z,100462.41
2022-10-26T12:02:26.365Z,100459.63
2022-10-26T12:05:17.760Z,100464.56
2022-10-26T12:07:49.997Z,100463.63
2022-10-26T12:10:26.132Z,100472.09
2022-10-26T12:13:35.881Z,100461.22
2022-10-26T12:16:45.070Z,100472.03
2022-10-26T12:22:18.903Z,100467.69
2022-10-26T12:24:46.962Z,100467.34
2022-10-26T12:27:33.283Z,100467.34
2022-10-26T12:30:18.635Z,100467.94
2022-10-26T12:32:45.149Z,100469.50
2022-10-26T12:35:32.535Z,100465.06
2022-10-26T12:38:00.529Z,100459.03
2022-10-26T12:40:47.869Z,100462.59
2022-10-26T12:43:14.392Z,100461.75
2022-10-26T12:45:43.003Z,100462.25
2022-10-26T12:48:41.192Z,100464.56
2022-10-26T12:51:21.070Z,100468.97
2022-10-26T12:54:06.433Z,100466.34
2022-10-26T12:56:50.346Z,100460.94
2022-10-26T12:59:33.860Z,100461.97
2022-10-26T13:02:30.566Z,100461.72
2022-10-26T13:04:59.838Z,100460.00
2022-10-26T13:07:34.140Z,100455.00
2022-10-26T13:10:17.240Z,100448.97
2022-10-26T13:12:51.746Z,100453.47
2022-10-26T13:15:22.452Z,100448.25
2022-10-26T13:17:55.286Z,100458.44
2022-10-26T13:20:21.904Z,100449.31
2022-10-26T13:22:49.190Z,100454.03
2022-10-26T13:25:34.070Z,100447.28
2022-10-26T13:28:25.358Z,100456.38
2022-10-26T13:30:51.944Z,100446.16
2022-10-26T13:33:23.506Z,100447.63
2022-10-26T13:35:54.064Z,100442.78
2022-10-26T13:38:24.460Z,100450.88
2022-10-26T13:40:56.213Z,100450.00
2022-10-26T13:43:24.870Z,100457.09
2022-10-26T13:46:02.624Z,100460.94
2022-10-26T13:48:38.016Z,100463.00
2022-10-26T13:51:18.787Z,100463.28
2022-10-26T13:53:52.035Z,100470.34
2022-10-26T13:56:30.796Z,100474.72
2022-10-26T13:59:09.841Z,100463.03
2022-10-26T14:01:38.100Z,100463.75
2022-10-26T14:04:26.089Z,100455.84
2022-10-26T14:06:54.023Z,100464.56
2022-10-26T14:09:22.225Z,100459.91
2022-10-26T14:11:52.270Z,100460.84
2022-10-26T14:14:35.043Z,100453.00
2022-10-26T14:17:02.745Z,100455.72
2022-10-26T14:19:33.107Z,100458.34
2022-10-26T14:22:00.324Z,100453.22
2022-10-26T14:24:52.850Z,100449.81
2022-10-26T14:27:22.534Z,100446.44
2022-10-26T14:30:16.840Z,100446.66
2022-10-26T14:32:37.814Z,100455.22
2022-10-26T14:35:04.761Z,100455.34
2022-10-26T14:37:40.298Z,100458.22
2022-10-26T14:40:08.126Z,100461.03
2022-10-26T14:42:40.078Z,100453.28
2022-10-26T14:45:29.420Z,100454.47
2022-10-26T14:48:05.567Z,100460.94
2022-10-26T14:50:34.687Z,100462.94
2022-10-26T14:53:05.306Z,100463.13
2022-10-26T14:55:47.503Z,100461.59
2022-10-26T14:58:24.200Z,100457.41
2022-10-26T15:01:17.555Z,100455.97
2022-10-26T15:03:45.392Z,100455.34
2022-10-26T15:06:34.987Z,100457.44
2022-10-26T15:09:05.388Z,100457.69
2022-10-26T15:11:33.793Z,100465.06
2022-10-26T15:14:00.598Z,100449.41
2022-10-26T15:16:30.318Z,100447.00
2022-10-26T15:19:23.144Z,100457.00
2022-10-26T15:21:52.410Z,100461.69
2022-10-26T15:24:39.375Z,100449.63
2022-10-26T15:27:16.092Z,100456.88
2022-10-26T15:29:49.120Z,100452.63
2022-10-26T15:32:26.275Z,100454.53
2022-10-26T15:35:11.514Z,100455.63
2022-10-26T15:37:38.992Z,100458.41
2022-10-26T15:40:06.531Z,100466.50
2022-10-26T15:42:38.236Z,100463.13
2022-10-26T15:45:15.533Z,100458.91
2022-10-26T15:47:42.578Z,100464.31
2022-10-26T15:50:16.004Z,100467.09
2022-10-26T15:52:45.381Z,100467.25
2022-10-26T15:55:14.920Z,100469.19
2022-10-26T15:57:42.587Z,100471.13
2022-10-26T16:00:15.738Z,100467.78
2022-10-26T16:02:44.357Z,100482.09
2022-10-26T16:05:16.295Z,100483.06
2022-10-26T16:07:44.710Z,100479.66
2022-10-26T16:10:20.340Z,100476.22
2022-10-26T16:12:47.126Z,100487.78
2022-10-26T16:15:24.804Z,100478.13
2022-10-26T16:17:52.388Z,100494.94
2022-10-26T16:20:23.017Z,100488.00
2022-10-26T16:22:51.540Z,100493.34
2022-10-26T16:25:25.587Z,100493.38
2022-10-26T16:27:54.325Z,100499.63
2022-10-26T16:30:23.742Z,100496.16
2022-10-26T16:32:53.058Z,100497.91
2022-10-26T16:35:19.973Z,100510.22
2022-10-26T16:37:46.681Z,100507.56
2022-10-26T16:40:13.403Z,100504.03
2022-10-26T16:42:45.003Z,100509.41
2022-10-26T16:45:13.036Z,100509.47
2022-10-26T16:47:40.314Z,100514.81
2022-10-26T16:50:11.859Z,100520.13
2022-10-26T16:52:39.469Z,100527.19
2022-10-26T16:55:08.165Z,100538.66
2022-10-26T16:57:37.951Z,100536.03
2022-10-26T17:00:07.080Z,100528.13
2022-10-26T17:02:34.200Z,100530.75
2022-10-26T17:05:04.185Z,100533.44
2022-10-26T17:07:33.617Z,100538.72
2022-10-26T17:10:00.246Z,100536.06
2022-10-26T17:15:15.947Z,100545.75
2022-10-26T17:17:45.454Z,100531.66
2022-10-26T17:20:12.778Z,100544.00
2022-10-26T17:22:40.044Z,100549.25
2022-10-26T17:25:08.153Z,100546.63
2022-10-26T17:27:36.061Z,100536.94
2022-10-26T17:30:03.082Z,100551.88
2022-10-26T17:32:30.588Z,100543.97
2022-10-26T17:34:57.442Z,100550.09
2022-10-26T17:37:25.223Z,100558.00
2022-10-26T17:39:51.824Z,100561.50
2022-10-26T17:42:18.455Z,100549.22
2022-10-26T17:44:45.330Z,100559.75
2022-10-26T17:47:12.005Z,100561.50
2022-10-26T17:49:38.606Z,100557.94
2022-10-26T17:52:06.238Z,100562.25
2022-10-26T17:54:35.738Z,100563.97
2022-10-26T17:57:02.481Z,100570.06
2022-10-26T17:59:29.322Z,100574.44
2022-10-26T18:01:57.208Z,100580.56
2022-10-26T18:04:24.565Z,100579.66
2022-10-26T18:06:51.222Z,100584.91
2022-10-26T18:09:17.964Z,100586.63
2022-10-26T18:11:44.575Z,100588.31
2022-10-26T18:14:11.190Z,100590.03
2022-10-26T18:16:37.791Z,100594.41
2022-10-26T18:19:05.011Z,100595.25
2022-10-26T18:21:34.602Z,100600.50
2022-10-26T18:24:01.288Z,100596.97
2022-10-26T18:26:30.104Z,100604.84
2022-10-26T18:28:58.276Z,100607.41
2022-10-26T18:31:26.032Z,100607.38
2022-10-26T18:33:57.662Z,100609.97
2022-10-26T18:36:27.054Z,100609.97
2022-10-26T18:38:54.148Z,100609.97
2022-10-26T18:41:22.274Z,100616.06
2022-10-26T18:43:52.660Z,100616.09
2022-10-26T18:46:24.659Z,100611.69
2022-10-26T18:48:59.657Z,100614.41
2022-10-26T18:51:31.140Z,100610.97
2022-10-26T18:53:58.454Z,100607.38
2022-10-26T18:56:25.777Z,100616.13
2022-10-26T18:58:56.232Z,100609.97
2022-10-26T19:01:36.745Z,100614.25
2022-10-26T19:04:08.594Z,100615.03
2022-10-26T19:06:41.150Z,100609.69
2022-10-26T19:09:08.504Z,100610.47
2022-10-26T19:11:36.133Z,100618.25
2022-10-26T19:14:02.873Z,100614.69
2022-10-26T19:16:49.581Z,100615.47
2022-10-26T19:19:17.213Z,100622.47
2022-10-26T19:21:48.311Z,100624.16
2022-10-26T19:24:21.104Z,100626.72
2022-10-26T19:26:49.068Z,100637.19
2022-10-26T19:29:16.995Z,100631.84
2022-10-26T19:31:50.486Z,100641.38
2022-10-26T19:34:17.878Z,100646.56
2022-10-26T19:36:46.487Z,100648.25
2022-10-26T19:39:16.783Z,100644.75
2022-10-26T19:41:48.715Z,100660.44
2022-10-26T19:44:16.715Z,100659.47
2022-10-26T19:46:45.507Z,100662.06
2022-10-26T19:49:17.770Z,100664.59
2022-10-26T19:51:45.477Z,100660.16
2022-10-26T19:54:12.134Z,100661.06
2022-10-26T19:56:39.021Z,100656.59
2022-10-26T19:59:06.890Z,100667.94
2022-10-26T20:01:33.993Z,100661.84
2022-10-26T20:04:02.834Z,100665.31
2022-10-26T20:06:31.777Z,100669.75
2022-10-26T20:09:01.027Z,100674.97
2022-10-26T20:11:28.107Z,100674.81
2022-10-26T20:13:57.587Z,100679.06
2022-10-26T20:16:24.976Z,100678.91
2022-10-26T20:18:51.744Z,100678.81
2022-10-26T20:21:18.423Z,100683.13
2022-10-26T20:23:45.786Z,100676.84
2022-10-26T20:26:18.987Z,100682.91
2022-10-26T20:28:48.793Z,100691.66
2022-10-26T20:31:16.374Z,100687.19
2022-10-26T20:33:51.425Z,100688.00
2022-10-26T20:36:18.155Z,100687.25
2022-10-26T20:38:46.275Z,100689.81
2022-10-26T20:47:30.092Z,100682.69
2022-10-26T20:49:56.919Z,100699.38
2022-10-26T20:52:38.930Z,100695.81
2022-10-26T20:55:24.489Z,100700.16
2022-10-26T20:57:59.164Z,100702.75
2022-10-26T21:00:26.430Z,100693.19
2022-10-26T21:02:53.280Z,100700.22
2022-10-26T21:05:21.101Z,100701.06
2022-10-26T21:07:48.076Z,100702.78
2022-10-26T21:10:16.855Z,100698.38
2022-10-26T21:12:45.511Z,100697.47
2022-10-26T21:15:14.305Z,100703.59
2022-10-26T21:17:41.046Z,100699.19
2022-10-26T21:20:09.233Z,100703.47
2022-10-26T21:22:36.334Z,100712.03
2022-10-26T21:25:03.213Z,100706.66
2022-10-26T21:27:29.783Z,100709.16
2022-10-26T21:29:56.395Z,100714.31
2022-10-26T21:32:23.123Z,100713.44
2022-10-26T21:34:49.786Z,100713.34
2022-10-26T21:37:16.457Z,100716.88
2022-10-26T21:39:43.322Z,100712.44
2022-10-26T21:42:10.126Z,100718.47
2022-10-26T21:44:41.401Z,100723.63
2022-10-26T21:47:09.122Z,100722.75
2022-10-26T21:49:36.081Z,100715.72
2022-10-26T21:52:02.719Z,100724.44
2022-10-26T21:54:29.340Z,100721.78
2022-10-26T21:56:56.013Z,100717.34
2022-10-26T21:59:25.417Z,100726.13
2022-10-26T22:01:52.179Z,100726.94
2022-10-26T22:04:18.904Z,100731.25
2022-10-26T22:06:45.515Z,100728.56
2022-10-26T22:09:12.094Z,100724.97
2022-10-26T22:11:38.699Z,100734.72
2022-10-26T22:14:06.554Z,100733.88
2022-10-26T22:16:33.609Z,100727.75
2022-10-26T22:19:06.468Z,100737.41
2022-10-26T22:21:35.737Z,100730.41
2022-10-26T22:24:02.665Z,100735.66
2022-10-26T22:26:29.683Z,100734.81
2022-10-26T22:28:57.395Z,100732.13
2022-10-26T22:34:03.277Z,100738.19
2022-10-26T22:36:33.188Z,100733.88
2022-10-26T22:39:02.206Z,100730.31
2022-10-26T22:41:29.216Z,100730.44
2022-10-26T22:43:55.852Z,100740.09
2022-10-26T22:46:24.844Z,100733.88
2022-10-26T22:49:00.727Z,100738.13
2022-10-26T22:51:30.747Z,100744.19
2022-10-26T22:53:59.227Z,100740.66
2022-10-26T22:58:53.992Z,100746.00
2022-10-26T23:01:24.635Z,100747.81
2022-10-26T23:03:53.375Z,100740.88
2022-10-26T23:06:23.604Z,100750.47
2022-10-26T23:08:55.020Z,100751.38
2022-10-26T23:11:23.920Z,100762.66
2022-10-26T23:13:54.737Z,100759.19
2022-10-26T23:16:21.758Z,100757.50
2022-10-26T23:18:49.195Z,100757.59
2022-10-26T23:21:17.350Z,100761.19
2022-10-26T23:23:44.106Z,100764.78
2022-10-26T23:26:16.608Z,100755.09
2022-10-26T23:28:44.087Z,100748.09
2022-10-26T23:31:28.887Z,100751.72
2022-10-26T23:33:56.923Z,100752.69
2022-10-26T23:36:24.967Z,100757.91
2022-10-26T23:38:51.577Z,100757.03
2022-10-26T23:41:18.236Z,100763.19
2022-10-26T23:43:44.915Z,100760.66
2022-10-26T23:46:11.531Z,100759.88
2022-10-26T23:48:38.439Z,100763.38
2022-10-26T23:51:05.250Z,100762.50
2022-10-26T23:53:31.945Z,100771.28
2022-10-26T23:55:58.522Z,100774.84
2022-10-26T23:58:25.261Z,100779.22
